Friday, November 24, 2017, 8:19 AM EST
Back to Local

KDKK, Chautauqua County/dunkirk

Location: Dunkirk, NY, United States Lat: 42.5
Local Time: 8:19 AM EST (13:19 GMT) Lon: -79.283
Time Zone: US/Eastern Elev: 692 ft

Show me the last for .
Show Decoded

2017-11-24 07:53 METAR KDKK 241253Z AUTO 19011KT 10SM CLR 01/M04 A2992 RMK AO2 SLP137 T00111044 =
2017-11-24 06:53 METAR KDKK 241153Z AUTO 19012KT 10SM CLR 01/M04 A2993 RMK AO2 SLP141 T00111044
                 10033 20011 57008 =
2017-11-24 05:53 METAR KDKK 241053Z AUTO 19012G19KT 10SM CLR 01/M04 A2994 RMK AO2 SLP143
                 T00111039 =
2017-11-24 04:53 METAR KDKK 240953Z AUTO 19009KT 10SM CLR 01/M04 A2994 RMK AO2 SLP146 T00111039 =
2017-11-24 03:53 METAR KDKK 240853Z AUTO 20009KT 10SM CLR 02/M04 A2995 RMK AO2 SLP148 T00171039
                 58005 =
2017-11-24 02:53 METAR KDKK 240753Z AUTO 20008KT 10SM BKN032 02/M03 A2996 RMK AO2 SLP152
                 T00221033 =
2017-11-24 01:53 METAR KDKK 240653Z AUTO 19009KT 10SM OVC031 03/M03 A2996 RMK AO2 SLP152
                 T00281033 =
2017-11-24 00:53 METAR KDKK 240553Z AUTO 20009KT 10SM OVC033 03/M03 A2997 RMK AO2 SLP153
                 T00331033 10033 20022 58005 =
2017-11-23 23:53 METAR KDKK 240453Z AUTO 21008KT 10SM BKN033 OVC041 03/M04 A2998 RMK AO2 SLP160
                 T00331044 400331017 =
2017-11-23 22:53 METAR KDKK 240353Z AUTO 22010KT 10SM OVC060 03/M05 A2997 RMK AO2 SLP155
                 T00331050 =
2017-11-23 21:53 METAR KDKK 240253Z AUTO 21010KT 10SM OVC060 03/M05 A2998 RMK AO2 SLP158
                 T00281050 58000 =
2017-11-23 20:53 METAR KDKK 240153Z AUTO 21008KT 10SM OVC075 02/M04 A2999 RMK AO2 SLP162
                 T00221044 =
2017-11-23 19:53 METAR KDKK 240053Z AUTO 22006KT 10SM FEW043 OVC075 02/M05 A2999 RMK AO2 SLP162
                 T00221050 =
2017-11-23 18:53 METAR KDKK 232353Z AUTO 21007KT 10SM FEW042 OVC060 02/M05 A2998 RMK AO2 SLP160
                 T00221050 10028 20017 55002 =
2017-11-23 17:53 METAR KDKK 232253Z AUTO 22007KT 10SM OVC050 02/M04 A2997 RMK AO2 SLP157
                 T00221044 =
2017-11-23 16:53 METAR KDKK 232153Z AUTO 22007KT 10SM BKN055 OVC070 02/M05 A2997 RMK AO2 SLP158
                 T00221050 =
2017-11-23 15:53 METAR KDKK 232053Z AUTO 20009KT 10SM SCT034 OVC070 02/M04 A2999 RMK AO2 SLP161
                 T00221044 55014 =
2017-11-23 14:53 METAR KDKK 231953Z AUTO 22011KT 10SM FEW035 OVC100 02/M04 A2998 RMK AO2 SLP161
                 T00221039 =
2017-11-23 13:53 METAR KDKK 231853Z AUTO 20011KT 10SM BKN034 OVC100 03/M04 A3001 RMK AO2 SLP169
                 T00281044 =
2017-11-23 12:53 METAR KDKK 231753Z AUTO 20010KT 10SM BKN043 OVC100 02/M03 A3003 RMK AO2 SLP175
                 T00221033 10022 21006 58026 =
2017-11-23 11:53 METAR KDKK 231653Z AUTO 20010KT 10SM OVC032 01/M04 A3005 RMK AO2 SLP184
                 T00111039 =
2017-11-23 11:46 METAR KDKK 231646Z AUTO 20008KT 10SM OVC030 01/M04 A3006 RMK AO2 T00111039 =
2017-11-23 10:53 METAR KDKK 231553Z AUTO 19009KT 10SM OVC026 01/M04 A3008 RMK AO2 SLP194
                 T00061039 =
2017-11-23 09:53 METAR KDKK 231453Z AUTO 20009KT 10SM OVC025 01/M04 A3010 RMK AO2 SLP202
                 T00061039 58001 =
2017-11-23 08:53 METAR KDKK 231353Z AUTO 19008KT 10SM OVC025 00/M04 A3012 RMK AO2 SLP208
                 T00001039 =

Support USWX by starting your Amazon purchase here.